Flight Track Log - Related Links

Times and Time Zones

All times are in EDT time to prevent confusion due to time zone crossing. See the ACA854 flight status page for this flight to view local times or setup timezone preferences in your user account.

Time Position Orientation Groundspeed Altitude Reporting Facility
EDT Latitude Longitude Course Direction KTS MPH feet Rate Location/Type
Mon 10:05:17 PM 49.1890 -123.1960 280° West 184 212 100  Level FlightAware ADS-B
Mon 10:05:52 PM 49.1930 -123.2420 278° West 191 220 1,500 2,300 Climbing FlightAware ADS-B
Mon 10:06:17 PM 49.1910 -123.2760 265° West 198 228 2,400 2,040 Climbing FlightAware ADS-B
Mon 10:06:42 PM 49.1880 -123.3120 263° West 214 246 3,200 1,600 Climbing FlightAware ADS-B
Mon 10:07:02 PM 49.1780 -123.3390 240° Southwest 243 280 3,600 1,000 Climbing FlightAware ADS-B
Mon 10:07:12 PM 49.1690 -123.3490 216° Southwest 258 297 3,700 2,040 Climbing FlightAware ADS-B
Mon 10:07:52 PM 49.1200 -123.3400 173° South 273 314 5,300 2,600 Climbing FlightAware ADS-B
Mon 10:08:12 PM 49.1050 -123.3110 128° Southeast 268 308 6,300 2,800 Climbing FlightAware ADS-B
Mon 10:08:37 PM 49.0980 -123.2660 103° East 267 307 7,400 2,618 Climbing FlightAware ADS-B
Mon 10:09:07 PM 49.0920 -123.2090 99° East 279 321 8,700 2,618 Climbing FlightAware ADS-B
Mon 10:09:32 PM 49.0870 -123.1610 99° East 286 329 9,800 2,215 Climbing FlightAware ADS-B
Mon 10:10:12 PM 49.0780 -123.0780 99° East 314 361 11,100 1,792 Climbing FlightAware ADS-B
Mon 10:10:49 PM 49.0715 -122.9880 96° East 349 402 12,100 1,676 Climbing FlightAware ADS-B
Mon 10:11:20 PM 49.0720 -122.9090 89° East 378 435 13,000 2,225 Climbing FlightAware ADS-B
Mon 10:12:18 PM 49.0740 -122.7500 89° East 401 461 15,400 2,442 Climbing FlightAware ADS-B
Mon 10:12:46 PM 49.0758 -122.6680 88° East 415 478 16,500 2,500 Climbing FlightAware ADS-B
Mon 10:13:42 PM 49.0830 -122.5020 86° East 427 491 18,900 2,351 Climbing FlightAware ADS-B
Mon 10:14:23 PM 49.0920 -122.3780 84° East 444 511 20,300 2,182 Climbing FlightAware ADS-B
Mon 10:14:59 PM 49.1011 -122.2640 83° East 453 521 21,700 2,053 Climbing FlightAware ADS-B
Mon 10:15:39 PM 49.1106 -122.1360 83° East 463 533 22,900 1,886 Climbing FlightAware ADS-B
Mon 10:16:09 PM 49.1186 -122.0360 83° East 476 548 23,900 1,829 Climbing FlightAware ADS-B
Mon 10:17:01 PM 49.1329 -121.8620 83° East 489 563 25,400 1,807 Climbing FlightAware ADS-B
Mon 10:17:32 PM 49.1419 -121.7530 83° East 497 572 26,400 1,770 Climbing FlightAware ADS-B
Mon 10:18:02 PM 49.1509 -121.6490 82° East 504 580 27,200 1,636 Climbing FlightAware ADS-B
Mon 10:18:38 PM 49.1621 -121.5210 82° East 513 590 28,200 1,522 Climbing FlightAware ADS-B
Mon 10:19:09 PM 49.1720 -121.4100 82° East 521 600 28,900 1,437 Climbing FlightAware ADS-B
Mon 10:19:49 PM 49.1852 -121.2620 82° East 528 608 29,900 1,750 Climbing FlightAware ADS-B
Mon 10:20:21 PM 49.1961 -121.1430 82° East 526 605 31,000 1,920 Climbing FlightAware ADS-B
Mon 10:20:39 PM 49.2085 -121.0810 73° East 528 608 31,500 1,368 Climbing FlightAware ADS-B
Mon 10:21:18 PM 49.2490 -120.9500 65° Northeast 533 613 32,300 1,333 Climbing FlightAware ADS-B
Mon 10:21:24 PM 49.2567 -120.9300 59° Northeast 528 608 32,500 1,135 Climbing FlightAware ADS-B
Mon 10:21:55 PM 49.2952 -120.8290 60° Northeast 533 613 33,000 484 Climbing FlightAware ADS-B
Mon 10:22:26 PM 49.3334 -120.7280 60° Northeast 533 613 33,000  Level FlightAware ADS-B
Mon 10:23:21 PM 49.3990 -120.5500 60° Northeast 533 613 33,000  Level FlightAware ADS-B
Mon 10:24:03 PM 49.4460 -120.4210 61° Northeast 533 613 33,000  Level FlightAware ADS-B
Mon 10:24:41 PM 49.4930 -120.2880 61° Northeast 533 613 33,000  Level FlightAware ADS-B
Mon 10:24:58 PM 49.5163 -120.2240 61° Northeast 534 615 33,000  Level FlightAware ADS-B
Mon 10:26:11 PM 49.6000 -119.9870 61° Northeast 533 613 33,000  Level FlightAware ADS-B
Mon 10:27:01 PM 49.6590 -119.8200 61° Northeast 533 613 33,000  Level FlightAware ADS-B
Mon 10:27:41 PM 49.7060 -119.6870 61° Northeast 533 613 33,000  Level FlightAware ADS-B
Mon 10:28:21 PM 49.7530 -119.5510 62° Northeast 533 613 33,000  Level FlightAware ADS-B
Mon 10:28:56 PM 49.7940 -119.4340 61° Northeast 531 611 33,000  Level FlightAware ADS-B
Mon 10:29:41 PM 49.8440 -119.2890 62° Northeast 531 611 33,000  Level FlightAware ADS-B
Mon 10:30:21 PM 49.8890 -119.1560 62° Northeast 530 610 33,000  Level FlightAware ADS-B
Mon 10:31:06 PM 49.9430 -118.9980 62° Northeast 530 610 33,000  Level FlightAware ADS-B
Mon 10:31:46 PM 49.9850 -118.8760 62° Northeast 531 611 33,000  Level FlightAware ADS-B
Mon 10:32:42 PM 50.0530 -118.6730 62° Northeast 530 610 33,000  Level FlightAware ADS-B
Mon 10:33:22 PM 50.0980 -118.5390 62° Northeast 530 610 33,000  Level FlightAware ADS-B
Mon 10:33:58 PM 50.1390 -118.4150 63° Northeast 530 610 33,000  Level FlightAware ADS-B
Mon 10:34:44 PM 50.1910 -118.2610 62° Northeast 529 609 33,000  Level FlightAware ADS-B
Mon 10:35:20 PM 50.2310 -118.1390 63° Northeast 530 610 33,000  Level FlightAware ADS-B
Mon 10:36:00 PM 50.2760 -118.0020 63° Northeast 529 609 33,000  Level FlightAware ADS-B
Mon 10:36:39 PM 50.3180 -117.8720 63° Northeast 530 610 33,000  Level FlightAware ADS-B
Mon 10:37:20 PM 50.3630 -117.7330 63° Northeast 530 610 33,000  Level FlightAware ADS-B
Mon 10:38:04 PM 50.4130 -117.5800 63° Northeast 531 611 33,000  Level FlightAware ADS-B
Mon 10:38:45 PM 50.4510 -117.4620 63° Northeast 531 611 33,000  Level FlightAware ADS-B
Mon 10:39:28 PM 50.5030 -117.2970 64° Northeast 529 609 33,000  Level FlightAware ADS-B
Mon 10:40:09 PM 50.5400 -117.1810 63° Northeast 530 610 33,000  Level FlightAware ADS-B
Mon 10:40:48 PM 50.5910 -117.0190 64° Northeast 530 610 33,000  Level FlightAware ADS-B
Mon 10:41:32 PM 50.6400 -116.8630 64° Northeast 530 610 33,000  Level FlightAware ADS-B
Mon 10:42:13 PM 50.6840 -116.7220 64° Northeast 530 610 33,000  Level FlightAware ADS-B
Mon 10:42:58 PM 50.7320 -116.5670 64° Northeast 528 608 33,000  Level FlightAware ADS-B
Mon 10:43:38 PM 50.7750 -116.4270 64° Northeast 526 605 33,000  Level FlightAware ADS-B
Mon 10:44:19 PM 50.8190 -116.2850 64° Northeast 529 609 33,000  Level FlightAware ADS-B
Mon 10:45:05 PM 50.8660 -116.1300 64° Northeast 530 610 33,000  Level FlightAware ADS-B
Mon 10:45:49 PM 50.9140 -115.9710 64° Northeast 529 609 33,000  Level FlightAware ADS-B
Mon 10:46:28 PM 50.9560 -115.8310 64° Northeast 530 610 33,000  Level FlightAware ADS-B
Mon 10:47:09 PM 50.9980 -115.6900 65° Northeast 530 610 33,000  Level FlightAware ADS-B
Mon 10:47:43 PM 51.0340 -115.5690 65° Northeast 531 611 33,000  Level FlightAware ADS-B
Mon 10:48:24 PM 51.0760 -115.4250 65° Northeast 531 611 33,000  Level FlightAware ADS-B
Mon 10:49:09 PM 51.1230 -115.2680 64° Northeast 532 612 33,000  Level FlightAware ADS-B
Mon 10:49:44 PM 51.1590 -115.1410 66° East 532 612 33,000  Level FlightAware ADS-B
Mon 10:50:23 PM 51.2000 -115.0010 65° Northeast 532 612 33,000  Level FlightAware ADS-B
Mon 10:51:09 PM 51.2470 -114.8390 65° Northeast 531 611 33,000  Level FlightAware ADS-B
Mon 10:51:50 PM 51.2880 -114.6940 66° East 531 611 33,000  Level FlightAware ADS-B
Mon 10:52:34 PM 51.3340 -114.5330 65° Northeast 533 613 33,000  Level FlightAware ADS-B
Mon 10:53:14 PM 51.3750 -114.3880 66° East 535 616 33,000  Level FlightAware ADS-B
Mon 10:53:55 PM 51.4160 -114.2430 66° East 535 616 33,000  Level FlightAware ADS-B
Mon 10:54:30 PM 51.4520 -114.1150 66° East 535 616 33,000  Level FlightAware ADS-B
Mon 10:55:15 PM 51.4970 -113.9520 66° East 536 617 33,000  Level FlightAware ADS-B
Mon 10:55:54 PM 51.5370 -113.8080 66° East 535 616 33,000  Level FlightAware ADS-B
Mon 10:56:30 PM 51.5720 -113.6780 67° East 535 616 33,000  Level FlightAware ADS-B
Mon 10:57:09 PM 51.6120 -113.5330 66° East 536 617 33,000  Level FlightAware ADS-B
Mon 10:57:55 PM 51.6570 -113.3660 66° East 536 617 33,000  Level FlightAware ADS-B
Mon 10:58:36 PM 51.6960 -113.2220 66° East 538 619 33,000 353 Level FlightAware ADS-B
Mon 10:59:20 PM 51.7400 -113.0550 67° East 538 619 33,500 1,000 Climbing FlightAware ADS-B
Mon 11:00:00 PM 51.7790 -112.9070 67° East 536 617 34,400 975 Climbing FlightAware ADS-B
Mon 11:00:40 PM 51.8190 -112.7560 67° East 548 631 34,800 450 Climbing FlightAware ADS-B
Mon 11:01:20 PM 51.8580 -112.6080 67° East 549 632 35,000 152 Climbing FlightAware ADS-B
Mon 11:01:59 PM 51.8960 -112.4640 67° East 550 633 35,000  Level FlightAware ADS-B
Mon 11:02:40 PM 51.9370 -112.3050 67° East 552 635 35,000  Level FlightAware ADS-B
Mon 11:03:19 PM 51.9760 -112.1520 67° East 554 638 35,000  Level FlightAware ADS-B
Mon 11:03:55 PM 52.0100 -112.0160 68° East 554 638 35,000  Level FlightAware ADS-B
Mon 11:04:43 PM 52.0530 -111.8490 67° East 553 636 35,000  Level FlightAware ADS-B
Mon 11:05:19 PM 52.0840 -111.7320 67° East 553 636 35,000  Level FlightAware ADS-B
Mon 11:05:55 PM 52.1260 -111.5580 68° East 552 635 35,000  Level FlightAware ADS-B
Mon 11:06:40 PM 52.1680 -111.3880 68° East 549 632 35,000  Level FlightAware ADS-B
Mon 11:07:23 PM 52.2030 -111.2450 68° East 549 632 35,000  Level FlightAware ADS-B
Mon 11:07:59 PM 52.2320 -111.1280 68° East 549 632 35,000  Level FlightAware ADS-B
Mon 11:08:47 PM 52.2710 -110.9710 68° East 549 632 35,000  Level FlightAware ADS-B
Mon 11:09:23 PM 52.3000 -110.8530 68° East 549 632 35,000  Level FlightAware ADS-B
Mon 11:10:12 PM 52.3400 -110.6920 68° East 549 632 35,000  Level FlightAware ADS-B
Mon 11:10:48 PM 52.3690 -110.5740 68° East 549 632 35,000  Level FlightAware ADS-B
Mon 11:11:26 PM 52.4000 -110.4500 68° East 549 632 35,000  Level FlightAware ADS-B
Mon 11:12:03 PM 52.4290 -110.3280 69° East 549 632 35,000  Level FlightAware ADS-B
Mon 11:12:51 PM 52.4680 -110.1710 68° East 549 632 35,000  Level FlightAware ADS-B
Mon 11:13:27 PM 52.4970 -110.0520 68° East 549 632 35,000  Level FlightAware ADS-B
Mon 11:14:15 PM 52.5360 -109.8940 68° East 549 632 35,000  Level FlightAware ADS-B
Mon 11:14:51 PM 52.5650 -109.7760 68° East 549 632 35,000  Level FlightAware ADS-B
Mon 11:15:28 PM 52.5950 -109.6540 68° East 549 632 35,000  Level FlightAware ADS-B
Mon 11:16:17 PM 52.6350 -109.4920 68° East 549 632 35,000  Level FlightAware ADS-B
Mon 11:17:08 PM 52.8500 -109.1167 68° East 530 610 35,000  Level Edmonton Center
Mon 11:18:08 PM 52.9500 -108.9000 52° Northeast 540 621 35,000  Level Edmonton Center
Mon 11:19:08 PM 53.0167 -108.6833 63° Northeast 530 610 35,000  Level Edmonton Center
Mon 11:20:08 PM 53.1167 -108.4833 50° Northeast 530 610 35,000  Level Edmonton Center
Mon 11:21:08 PM 53.1833 -108.2667 63° Northeast 530 610 35,000  Level Edmonton Center
Mon 11:22:08 PM 53.2667 -108.0833 53° Northeast 530 610 35,000  Level Edmonton Center
Mon 11:23:08 PM 53.3500 -107.8500 59° Northeast 530 610 35,000  Level Edmonton Center
Mon 11:24:08 PM 53.4333 -107.6333 57° Northeast 530 610 35,000  Level Edmonton Center
Mon 11:25:08 PM 53.5167 -107.4333 55° Northeast 530 610 35,000  Level Edmonton Center
Mon 11:26:08 PM 53.6000 -107.2167 57° Northeast 530 610 35,000  Level Edmonton Center
Mon 11:27:08 PM 53.6667 -106.9833 64° Northeast 530 610 35,000  Level Edmonton Center
Mon 11:28:08 PM 53.7500 -106.8000 52° Northeast 530 610 35,000  Level Edmonton Center
Mon 11:29:08 PM 53.8500 -106.5667 54° Northeast 530 610 35,000  Level Edmonton Center
Mon 11:30:08 PM 53.9167 -106.3667 60° Northeast 530 610 35,000  Level Edmonton Center
Mon 11:31:08 PM 54.0000 -106.1500 57° Northeast 530 610 35,000  Level Edmonton Center
Mon 11:32:08 PM 54.0667 -105.9167 64° Northeast 530 610 35,000  Level Edmonton Center
Mon 11:33:08 PM 54.1500 -105.7167 55° Northeast 540 621 35,000  Level Edmonton Center
Mon 11:34:08 PM 54.2333 -105.4833 59° Northeast 540 621 35,000  Level Edmonton Center
Mon 11:35:08 PM 54.3167 -105.2500 58° Northeast 540 621 35,000  Level Edmonton Center
Mon 11:36:08 PM 54.4000 -105.0167 58° Northeast 540 621 35,000  Level Edmonton Center
Mon 11:37:08 PM 54.4667 -104.8167 60° Northeast 540 621 35,000  Level Edmonton Center
Mon 11:38:08 PM 54.5500 -104.5833 58° Northeast 540 621 35,000  Level Edmonton Center
Mon 11:39:08 PM 54.6333 -104.3500 58° Northeast 540 621 35,000  Level Edmonton Center
Mon 11:40:08 PM 54.7000 -104.1500 60° Northeast 540 621 35,000  Level Edmonton Center
Mon 11:41:08 PM 54.7833 -103.9000 60° Northeast 540 621 35,000  Level Edmonton Center
Mon 11:42:08 PM 54.8500 -103.6667 64° Northeast 540 621 35,000  Level Edmonton Center
Mon 11:43:08 PM 54.9333 -103.4333 58° Northeast 540 621 35,000  Level Edmonton Center
Mon 11:44:08 PM 55.0167 -103.2167 56° Northeast 540 621 35,000  Level Edmonton Center
Mon 11:45:08 PM 55.0667 -102.9833 69° East 550 633 35,000  Level Edmonton Center
Mon 11:46:08 PM 55.1500 -102.7333 60° Northeast 540 621 35,000  Level Edmonton Center
Mon 11:47:08 PM 55.2167 -102.5333 60° Northeast 540 621 35,000  Level Edmonton Center
Mon 11:48:08 PM 55.3000 -102.2500 63° Northeast 540 621 35,000  Level Edmonton Center
Mon 11:49:08 PM 55.3833 -102.0333 56° Northeast 530 610 35,000  Level Edmonton Center
Mon 11:50:08 PM 55.4333 -101.8167 68° East 530 610 35,000  Level Edmonton Center
Mon 11:51:08 PM 55.5167 -101.5833 58° Northeast 520 598 35,000  Level Edmonton Center
Mon 11:52:08 PM 55.5833 -101.3667 61° Northeast 530 610 35,000  Level Edmonton Center
Mon 11:53:08 PM 55.6500 -101.1167 65° Northeast 520 598 35,000  Level Edmonton Center
Mon 11:54:08 PM 55.7167 -100.9000 61° Northeast 520 598 35,000  Level Edmonton Center
Mon 11:55:08 PM 55.8000 -100.6500 59° Northeast 530 610 35,000  Level Edmonton Center
Mon 11:56:08 PM 55.8667 -100.4333 61° Northeast 540 621 35,000  Level Edmonton Center
Mon 11:57:08 PM 55.9667 -100.2333 48° Northeast 540 621 35,000  Level Edmonton Center
Mon 11:58:08 PM 56.0667 -99.9833 54° Northeast 540 621 35,000  Level Edmonton Center
Mon 11:59:08 PM 56.1500 -99.7500 57° Northeast 550 633 35,000  Level Edmonton Center
Tue 12:00:08 AM 56.2167 -99.5000 64° Northeast 560 644 35,000  Level Edmonton Center
Tue 12:01:08 AM 56.3000 -99.2500 59° Northeast 560 644 35,000  Level Edmonton Center
Tue 12:02:08 AM 56.3667 -98.9833 66° East 560 644 35,000  Level Edmonton Center
Tue 12:03:08 AM 56.4333 -98.7667 61° Northeast 560 644 35,000  Level Edmonton Center
Tue 12:04:08 AM 56.5167 -98.5000 60° Northeast 560 644 35,000  Level Edmonton Center
Tue 12:05:08 AM 56.5833 -98.2333 65° Northeast 570 656 35,000  Level Edmonton Center
Tue 12:06:08 AM 56.6500 -97.9833 64° Northeast 570 656 35,000  Level Edmonton Center
Tue 12:07:08 AM 56.7167 -97.7167 65° Northeast 570 656 35,000  Level Edmonton Center
Tue 12:08:08 AM 56.7833 -97.4167 68° East 580 667 35,000  Level Edmonton Center
Tue 12:09:08 AM 56.8667 -97.1667 59° Northeast 580 667 35,000  Level Edmonton Center
Tue 12:10:08 AM 56.9500 -96.9000 60° Northeast 590 679 35,000  Level Edmonton Center
Tue 12:11:08 AM 57.0167 -96.6333 65° Northeast 590 679 35,000  Level Edmonton Center
Tue 12:12:08 AM 57.0833 -96.3333 68° East 590 679 35,000  Level Edmonton Center
Tue 12:13:08 AM 57.1500 -96.0667 65° Northeast 590 679 35,000  Level Edmonton Center
Tue 12:14:08 AM 57.2167 -95.7833 66° East 590 679 35,000  Level Edmonton Center
Tue 12:15:08 AM 57.2833 -95.4833 68° East 600 690 35,000  Level Edmonton Center
Tue 12:16:08 AM 57.3500 -95.2167 65° Northeast 600 690 35,000  Level Edmonton Center
Tue 12:17:08 AM 57.4333 -94.9167 63° Northeast 600 690 35,000  Level Edmonton Center
Tue 12:18:08 AM 57.5000 -94.6333 66° East 600 690 35,000  Level Edmonton Center
Tue 12:19:08 AM 57.5500 -94.3667 71° East 590 679 35,000  Level Edmonton Center
Tue 12:20:08 AM 57.6333 -94.0500 64° Northeast 600 690 35,000  Level Edmonton Center
Tue 12:21:08 AM 57.7000 -93.7833 65° Northeast 600 690 35,000  Level Edmonton Center
Tue 12:22:08 AM 57.7500 -93.5000 72° East 600 690 35,000  Level Edmonton Center
Tue 12:23:08 AM 57.8167 -93.2167 66° East 590 679 35,000  Level Edmonton Center
Tue 12:24:08 AM 57.8833 -92.9000 68° East 600 690 35,000  Level Edmonton Center
Tue 12:25:08 AM 57.9333 -92.6000 72° East 600 690 35,000  Level Edmonton Center
Tue 12:26:08 AM 58.0167 -92.3167 61° Northeast 600 690 35,000  Level Edmonton Center
Tue 12:27:08 AM 58.0667 -92.0333 71° East 600 690 35,000  Level Edmonton Center
Tue 12:28:08 AM 58.1333 -91.7167 68° East 590 679 35,000  Level Edmonton Center
Tue 12:29:08 AM 58.2000 -91.4333 66° East 590 679 35,000  Level Edmonton Center
Tue 12:30:08 AM 58.2500 -91.1167 73° East 600 690 35,000  Level Edmonton Center
Tue 12:31:08 AM 58.3167 -90.8167 67° East 600 690 35,000  Level Edmonton Center
Tue 12:32:08 AM 58.3667 -90.5000 73° East 590 679 35,000  Level Edmonton Center
Tue 12:33:08 AM 58.4167 -90.2167 71° East 590 679 35,000  Level Edmonton Center
Tue 12:34:08 AM 58.4833 -89.9333 66° East 590 679 35,000  Level Edmonton Center
Tue 12:35:08 AM 58.5333 -89.6333 72° East 590 679 35,000  Level Edmonton Center
Tue 12:36:08 AM 58.5667 -89.3167 78° East 580 667 35,000  Level Edmonton Center
Tue 12:37:08 AM 58.6000 -89.0000 78° East 580 667 35,000  Level Edmonton Center
Tue 12:38:08 AM 58.6500 -88.7167 71° East 580 667 35,000  Level Edmonton Center
Tue 12:39:08 AM 58.6833 -88.4000 78° East 580 667 35,000  Level Edmonton Center
Tue 12:40:08 AM 58.7333 -88.1000 72° East 570 656 35,000  Level Edmonton Center
Tue 12:41:08 AM 58.7500 -87.7833 84° East 570 656 35,000  Level Edmonton Center
Tue 12:42:08 AM 58.8000 -87.5000 71° East 560 644 35,000  Level Edmonton Center
Tue 12:43:08 AM 58.8333 -87.2167 77° East 560 644 35,000  Level Edmonton Center
Tue 12:44:08 AM 58.8667 -86.9167 78° East 560 644 35,000  Level Edmonton Center
Tue 12:45:08 AM 58.9000 -86.6000 78° East 560 644 35,000  Level Edmonton Center
Tue 12:46:08 AM 58.9333 -86.3167 77° East 560 644 35,000  Level Edmonton Center
Tue 12:47:08 AM 58.9667 -86.0167 78° East 560 644 35,000  Level Edmonton Center
Tue 12:48:08 AM 59.0000 -85.7167 78° East 550 633 35,000  Level Edmonton Center
Tue 12:49:08 AM 59.0167 -85.4333 83° East 550 633 35,000  Level Edmonton Center
Tue 12:50:08 AM 59.0667 -85.1333 72° East 550 633 35,000  Level Edmonton Center
Tue 12:51:08 AM 59.0833 -84.8500 83° East 550 633 35,000  Level Edmonton Center
Tue 12:52:08 AM 59.1167 -84.5667 77° East 550 633 35,000  Level Edmonton Center
Tue 12:53:08 AM 59.1500 -84.2667 78° East 540 621 35,000  Level Edmonton Center
Tue 12:54:08 AM 59.1667 -83.9667 84° East 550 633 35,000  Level Edmonton Center
Tue 12:55:08 AM 59.2000 -83.6833 77° East 540 621 35,000  Level Edmonton Center
Tue 12:56:08 AM 59.2167 -83.3833 84° East 540 621 35,000  Level Edmonton Center
Tue 12:57:08 AM 59.2500 -83.0833 78° East 540 621 35,000  Level Edmonton Center
Tue 12:58:08 AM 59.2667 -82.8000 83° East 530 610 35,000  Level Edmonton Center
Tue 12:59:08 AM 59.3000 -82.5333 76° East 530 610 35,000  Level Edmonton Center
Tue 01:00:08 AM 59.3167 -82.2333 84° East 530 610 35,000  Level Edmonton Center
Tue 01:01:08 AM 59.3333 -81.9500 83° East 530 610 35,000  Level Edmonton Center
Tue 01:02:08 AM 59.3500 -81.6500 84° East 530 610 35,000  Level Edmonton Center
Tue 01:03:08 AM 59.3833 -81.3500 78° East 530 610 35,000  Level Edmonton Center
Tue 01:04:08 AM 59.4000 -81.0833 83° East 530 610 35,000  Level Edmonton Center
Tue 01:05:08 AM 59.4167 -80.8000 83° East 540 621 35,000  Level Edmonton Center
Tue 01:06:08 AM 59.4333 -80.5000 84° East 540 621 35,000  Level Edmonton Center
Tue 01:07:08 AM 59.4667 -80.2000 78° East 550 633 35,000  Level Edmonton Center
Tue 01:08:08 AM 59.4667 -79.9000 90° East 550 633 35,000  Level Edmonton Center
Tue 01:09:08 AM 59.5000 -79.6000 78° East 550 633 35,000  Level Edmonton Center
Tue 01:10:08 AM 59.5333 -79.2833 78° East 530 610 35,000  Level Edmonton Center
Tue 01:11:08 AM 59.5500 -79.0167 83° East 530 610 35,000  Level Edmonton Center
Tue 01:12:08 AM 59.5667 -78.7167 84° East 520 598 35,000  Level Edmonton Center
Tue 01:13:08 AM 59.5833 -78.4500 83° East 520 598 35,000  Level Edmonton Center
Tue 01:14:08 AM 59.6167 -78.1667 77° East 520 598 35,000  Level Edmonton Center
Tue 01:15:08 AM 59.6333 -77.9000 83° East 520 598 35,000  Level Edmonton Center
Tue 01:16:08 AM 59.6500 -77.6000 84° East 520 598 35,000  Level Edmonton Center
Tue 01:17:08 AM 59.6667 -77.3333 83° East 520 598 35,000  Level Edmonton Center
Tue 01:18:08 AM 59.7000 -77.0500 77° East 510 587 35,000  Level Edmonton Center
Tue 01:19:08 AM 59.7000 -76.7500 90° East 510 587 35,000  Level Edmonton Center
Tue 01:20:08 AM 59.7333 -76.4833 76° East 510 587 35,000  Level Edmonton Center
Tue 01:21:08 AM 59.7333 -76.1833 90° East 510 587 35,000  Level Edmonton Center
Tue 01:22:08 AM 59.7500 -75.9500 82° East 510 587 35,000  Level Edmonton Center
Tue 01:23:08 AM 59.7833 -75.6667 77° East 510 587 35,000  Level Edmonton Center
Tue 01:24:08 AM 59.8000 -75.3500 84° East 510 587 35,000  Level Edmonton Center
Tue 01:25:08 AM 59.8000 -75.0500 90° East 510 587 35,000  Level Edmonton Center
Tue 01:26:08 AM 59.8167 -74.7667 83° East 510 587 35,000  Level Edmonton Center
Tue 01:27:08 AM 59.8333 -74.5000 83° East 510 587 35,000  Level Edmonton Center
Tue 01:28:08 AM 59.8500 -74.2167 83° East 510 587 35,000  Level Edmonton Center
Tue 01:29:08 AM 59.8667 -73.9500 83° East 510 587 35,000  Level Edmonton Center
Tue 01:30:08 AM 59.8667 -73.6500 90° East 510 587 35,000  Level Edmonton Center
Tue 01:31:08 AM 59.8833 -73.3833 83° East 510 587 35,000  Level Edmonton Center
Tue 01:32:08 AM 59.8833 -73.1333 90° East 510 587 35,000  Level Edmonton Center
Tue 01:33:27 AM 59.9500 -72.9000 60° Northeast 510 587 35,000  Level Montreal Center
Tue 01:34:27 AM 59.9500 -72.6000 90° East 500 575 35,000  Level Montreal Center
Tue 01:35:27 AM 59.9667 -72.3333 83° East 500 575 35,000  Level Montreal Center
Tue 01:36:27 AM 59.9833 -72.0667 83° East 500 575 35,000 50 Level Montreal Center
Tue 01:37:27 AM 59.9833 -71.7667 90° East 500 575 35,100 200 Climbing Montreal Center
Tue 01:38:27 AM 60.0000 -71.5000 83° East 500 575 35,400 300 Climbing Montreal Center
Tue 01:39:27 AM 60.0000 -71.2167 90° East 500 575 35,700 300 Climbing Montreal Center
Tue 01:40:27 AM 60.0000 -70.9500 90° East 500 575 36,000 150 Climbing Montreal Center
Tue 01:41:27 AM 60.0167 -70.6500 84° East 500 575 36,000  Level Montreal Center
Tue 01:42:27 AM 60.0000 -70.3833 97° East 500 575 36,000  Level Montreal Center
Tue 01:44:17 AM 60.0167 -69.9167 86° East 510 587 36,000  Level Gander Center
Tue 01:45:17 AM 60.0500 -69.6500 76° East 500 575 36,000  Level Gander Center
Tue 01:46:17 AM 60.0833 -69.4000 75° East 500 575 36,000  Level Gander Center
Tue 01:47:17 AM 60.1167 -69.1000 77° East 510 587 36,000  Level Gander Center
Tue 01:48:17 AM 60.1333 -68.8333 83° East 500 575 36,000  Level Gander Center
Tue 01:49:17 AM 60.1667 -68.5833 75° East 500 575 36,000  Level Gander Center
Tue 01:50:17 AM 60.1833 -68.3167 83° East 510 587 36,000  Level Gander Center
Tue 01:51:17 AM 60.2000 -68.0167 83° East 500 575 36,000  Level Gander Center
Tue 01:52:17 AM 60.2333 -67.7167 77° East 490 564 36,000  Level Gander Center
Tue 01:53:17 AM 60.2667 -67.4500 76° East 500 575 36,000  Level Gander Center
Tue 01:54:17 AM 60.2833 -67.1833 83° East 500 575 36,000  Level Gander Center
Tue 01:55:17 AM 60.3000 -66.9167 83° East 500 575 36,000  Level Gander Center
Tue 01:56:17 AM 60.3333 -66.6333 77° East 500 575 36,000  Level Gander Center
Tue 01:57:17 AM 60.3500 -66.3667 83° East 500 575 36,000  Level Gander Center
Tue 01:58:17 AM 60.3667 -66.1000 83° East 500 575 36,000  Level Gander Center
Tue 01:59:17 AM 60.4000 -65.8333 76° East 500 575 36,000  Level Gander Center
Tue 02:00:17 AM 60.4167 -65.5667 83° East 500 575 36,000  Level Gander Center
Tue 02:01:17 AM 60.4500 -65.3000 76° East 500 575 36,000  Level Gander Center
Tue 02:02:17 AM 60.4500 -64.9833 90° East 490 564 36,000  Level Gander Center
Tue 02:03:17 AM 60.4667 -64.7167 83° East 490 564 36,000  Level Gander Center
Tue 02:04:17 AM 60.5000 -64.4500 76° East 490 564 36,000  Level Gander Center
Tue 02:05:17 AM 60.5000 -64.1833 90° East 500 575 36,000  Level Gander Center
Tue 02:06:17 AM 60.5333 -63.8833 77° East 490 564 36,000  Level Gander Center
Tue 02:07:17 AM 60.5500 -63.6167 83° East 490 564 36,000  Level Gander Center
Tue 02:08:17 AM 60.5667 -63.3500 83° East 490 564 36,000  Level Gander Center
Tue 02:09:17 AM 60.5667 -63.0667 90° East 490 564 36,000  Level Gander Center
Tue 02:10:17 AM 60.5833 -62.8000 83° East 490 564 36,000  Level Gander Center
Tue 02:11:17 AM 60.6000 -62.5333 83° East 490 564 36,000  Level Gander Center
Tue 02:12:17 AM 60.5333 -62.3000 120° Southeast 490 564 36,000  Level Gander Center
Tue 02:13:17 AM 60.4167 -62.1500 148° Southeast 500 575 36,000  Level Gander Center
Tue 02:14:17 AM 60.2667 -62.1500 180° South 500 575 36,000  Level Gander Center
Tue 02:15:17 AM 60.1333 -62.1500 180° South 510 587 36,000  Level Gander Center
Tue 02:16:17 AM 59.9833 -62.1500 180° South 510 587 36,000  Level Gander Center
Tue 02:17:17 AM 59.8500 -62.1500 180° South 510 587 36,000  Level Gander Center
Tue 02:18:17 AM 59.7000 -62.1333 177° South 520 598 36,000  Level Gander Center
Tue 02:19:17 AM 59.5500 -62.1333 180° South 520 598 36,000  Level Gander Center
Tue 02:20:17 AM 59.4167 -62.1667 187° South 510 587 36,000  Level Gander Center
Tue 02:21:17 AM 59.2667 -62.2000 186° South 510 587 36,000  Level Gander Center
Tue 02:22:17 AM 59.1333 -62.1833 176° South 510 587 36,000  Level Gander Center
Tue 02:23:17 AM 58.9833 -62.2167 187° South 520 598 36,000  Level Gander Center
Tue 02:24:17 AM 58.8500 -62.2167 180° South 520 598 36,000  Level Gander Center
Tue 02:25:17 AM 58.7000 -62.2500 187° South 510 587 36,000  Level Gander Center
Tue 02:26:17 AM 58.5667 -62.2667 184° South 510 587 36,000  Level Gander Center
Tue 02:27:17 AM 58.4167 -62.2667 180° South 510 587 36,000  Level Gander Center
Tue 02:28:17 AM 58.2833 -62.3000 187° South 510 587 36,000  Level Gander Center
Tue 02:29:17 AM 58.1500 -62.3167 184° South 510 587 36,000  Level Gander Center
Tue 02:30:17 AM 58.0000 -62.3167 180° South 510 587 36,000  Level Gander Center
Tue 02:31:17 AM 57.8500 -62.3500 187° South 520 598 36,000  Level Gander Center
Tue 02:32:17 AM 57.7000 -62.3500 180° South 510 587 36,000  Level Gander Center
Tue 02:33:17 AM 57.5667 -62.3667 184° South 510 587 36,000  Level Gander Center
Tue 02:34:17 AM 57.4167 -62.4000 187° South 510 587 36,000  Level Gander Center
Tue 02:35:17 AM 57.2833 -62.4000 180° South 510 587 36,000  Level Gander Center
Tue 02:36:17 AM 57.1333 -62.4167 183° South 520 598 36,000  Level Gander Center
Tue 02:37:17 AM 57.0000 -62.4167 180° South 510 587 36,000  Level Gander Center
Tue 02:38:17 AM 56.8667 -62.4500 188° South 510 587 36,000  Level Gander Center
Tue 02:40:04 AM 56.6000 -62.4667 182° South 530 610 36,000  Level Moncton Center
Tue 02:41:04 AM 56.4500 -62.5000 187° South 510 587 36,000  Level Moncton Center
Tue 02:42:04 AM 56.3167 -62.5000 180° South 500 575 36,000  Level Moncton Center
Tue 02:43:04 AM 56.1833 -62.5167 184° South 510 587 36,000  Level Moncton Center
Tue 02:44:04 AM 56.0333 -62.5167 180° South 510 587 36,000  Level Moncton Center
Tue 02:45:04 AM 55.9000 -62.5500 188° South 510 587 36,000  Level Moncton Center
Tue 02:46:04 AM 55.7500 -62.5667 184° South 510 587 36,000  Level Moncton Center
Tue 02:47:04 AM 55.6167 -62.5667 180° South 510 587 36,000  Level Moncton Center
Tue 02:48:04 AM 55.4667 -62.5667 180° South 510 587 36,000  Level Moncton Center
Tue 02:50:27 AM 55.1333 -62.5667 180° South 510 587 36,000  Level Montreal Center
Tue 02:51:17 AM 55.0167 -62.6167 194° South 510 587 36,000  Level Gander Center
Tue 02:52:17 AM 54.8667 -62.6500 187° South 510 587 36,000  Level Gander Center
Tue 02:53:17 AM 54.7333 -62.6500 180° South 510 587 36,000  Level Gander Center
Tue 02:54:17 AM 54.5667 -62.6667 183° South 510 587 36,000  Level Gander Center
Tue 02:55:17 AM 54.4333 -62.6833 184° South 510 587 36,000  Level Gander Center
Tue 02:56:17 AM 54.2833 -62.6833 180° South 510 587 36,000  Level Gander Center
Tue 02:57:17 AM 54.1500 -62.7167 188° South 510 587 36,000  Level Gander Center
Tue 02:58:17 AM 54.0000 -62.7333 184° South 510 587 36,000  Level Gander Center
Tue 02:59:17 AM 53.8667 -62.7333 180° South 510 587 36,000  Level Gander Center
Tue 03:00:17 AM 53.7333 -62.7500 184° South 510 587 36,000  Level Gander Center
Tue 03:01:17 AM 53.5833 -62.7500 180° South 510 587 36,000  Level Gander Center
Tue 03:02:17 AM 53.4333 -62.7667 184° South 510 587 36,000  Level Gander Center
Tue 03:03:17 AM 53.3000 -62.8000 188° South 510 587 36,000  Level Gander Center
Tue 03:04:17 AM 53.1667 -62.7833 176° South 510 587 36,000  Level Gander Center
Tue 03:05:17 AM 53.0167 -62.8167 188° South 510 587 36,000  Level Gander Center
Tue 03:06:17 AM 52.8833 -62.8000 176° South 500 575 36,000  Level Gander Center
Tue 03:07:17 AM 52.7500 -62.8333 189° South 500 575 36,000  Level Gander Center
Tue 03:08:17 AM 52.6167 -62.8500 184° South 500 575 36,000  Level Gander Center
Tue 03:09:04 AM 52.5000 -62.8667 185° South 510 587 36,000  Level Moncton Center
Tue 03:10:04 AM 52.3500 -62.8667 180° South 510 587 36,000  Level Moncton Center
Tue 03:11:04 AM 52.2167 -62.8667 180° South 510 587 36,000  Level Moncton Center
Tue 03:12:04 AM 52.0833 -62.8667 180° South 510 587 36,000  Level Moncton Center
Tue 03:13:04 AM 51.9333 -62.9000 188° South 510 587 36,000  Level Moncton Center
Tue 03:14:04 AM 51.7833 -62.9167 184° South 510 587 36,000  Level Moncton Center
Tue 03:15:04 AM 51.6333 -62.9167 180° South 510 587 36,000  Level Moncton Center
Tue 03:16:04 AM 51.5000 -62.9167 180° South 510 587 36,000  Level Moncton Center
Tue 03:17:04 AM 51.3500 -62.9167 180° South 500 575 36,000  Level Moncton Center
Tue 03:18:04 AM 51.2167 -62.9500 189° South 510 587 36,000  Level Moncton Center
Tue 03:19:04 AM 51.0667 -62.9667 184° South 510 587 36,000  Level Moncton Center
Tue 03:20:04 AM 50.9333 -62.9667 180° South 510 587 36,000  Level Moncton Center
Tue 03:21:04 AM 50.7833 -62.9667 180° South 500 575 36,000  Level Moncton Center
Tue 03:22:04 AM 50.6500 -62.9667 180° South 500 575 36,000  Level Moncton Center
Tue 03:23:04 AM 50.5167 -63.0000 189° South 500 575 36,000  Level Moncton Center
Tue 03:24:04 AM 50.3833 -63.0000 180° South 490 564 36,000  Level Moncton Center
Tue 03:25:04 AM 50.2333 -63.0167 184° South 500 575 36,000  Level Moncton Center
Tue 03:26:04 AM 50.1000 -63.0167 180° South 500 575 36,000  Level Moncton Center
Tue 03:27:04 AM 49.9667 -63.0167 180° South 500 575 36,000  Level Moncton Center
Tue 03:28:04 AM 49.8167 -63.0500 188° South 510 587 36,000  Level Moncton Center
Tue 03:29:04 AM 49.6667 -63.0500 180° South 520 598 36,000  Level Moncton Center
Tue 03:30:04 AM 49.5333 -63.0500 180° South 500 575 36,000  Level Moncton Center
Tue 03:31:04 AM 49.4000 -63.0667 185° South 500 575 36,000  Level Moncton Center
Tue 03:32:04 AM 49.2500 -63.0667 180° South 510 587 36,000  Level Moncton Center
Tue 03:33:04 AM 49.1167 -63.0667 180° South 500 575 36,000  Level Moncton Center
Tue 03:34:04 AM 48.9667 -63.1000 188° South 500 575 36,000  Level Moncton Center
Tue 03:35:04 AM 48.8333 -63.1000 180° South 500 575 36,000  Level Moncton Center
Tue 03:36:04 AM 48.7000 -63.1000 180° South 510 587 36,000  Level Moncton Center
Tue 03:37:04 AM 48.5500 -63.1333 188° South 500 575 36,000  Level Moncton Center
Tue 03:38:04 AM 48.4167 -63.1333 180° South 500 575 36,000  Level Moncton Center
Tue 03:39:04 AM 48.2833 -63.1333 180° South 500 575 36,000  Level Moncton Center
Tue 03:40:04 AM 48.1333 -63.1500 184° South 500 575 36,000  Level Moncton Center
Tue 03:41:04 AM 48.0000 -63.1500 180° South 510 587 36,000  Level Moncton Center
Tue 03:42:04 AM 47.8667 -63.1500 180° South 500 575 36,000  Level Moncton Center
Tue 03:43:04 AM 47.7167 -63.1833 189° South 500 575 36,000  Level Moncton Center
Tue 03:44:04 AM 47.5833 -63.1833 180° South 500 575 36,000  Level Moncton Center
Tue 03:45:04 AM 47.4333 -63.1833 180° South 500 575 36,000  Level Moncton Center
Tue 03:46:04 AM 47.3000 -63.1833 180° South 500 575 36,000 -200 Level Moncton Center
Tue 03:47:04 AM 47.1500 -63.1833 180° South 500 575 35,600 -1,700 Descending Moncton Center
Tue 03:48:04 AM 47.0000 -63.2167 189° South 490 564 32,600 -2,600 Descending Moncton Center
Tue 03:49:04 AM 46.8667 -63.2167 180° South 500 575 30,400 -2,200 Descending Moncton Center
Tue 03:50:04 AM 46.7333 -63.2167 180° South 480 552 28,200 -2,050 Descending Moncton Center
Tue 03:51:04 AM 46.6000 -63.2333 185° South 470 541 26,300 -1,900 Descending Moncton Center
Tue 03:52:04 AM 46.4833 -63.2333 180° South 460 529 24,400 -1,950 Descending Moncton Center
Tue 03:53:04 AM 46.3500 -63.2500 185° South 450 518 22,400 -1,800 Descending Moncton Center
Tue 03:54:04 AM 46.2333 -63.2667 186° South 440 506 20,800 -1,350 Descending Moncton Center
Tue 03:55:04 AM 46.1167 -63.2667 180° South 410 472 19,700 -1,350 Descending Moncton Center
Tue 03:56:04 AM 46.0167 -63.2667 180° South 390 449 18,100 -1,413 Descending Moncton Center
Tue 04:02:06 AM 45.4550 -63.3110 180° South 9,000 -1,386 Descending FlightAware ADS-B
Tue 04:03:04 AM 45.3667 -63.3000 180° South 290 334 8,400 -864 Descending Moncton Center
Tue 04:04:04 AM 45.2833 -63.3000 180° South 270 311 7,300 -1,150 Descending Moncton Center
Tue 04:05:04 AM 45.2167 -63.3000 180° South 270 311 6,100 -900 Descending Moncton Center
Tue 04:06:04 AM 45.1500 -63.3000 180° South 250 288 5,500 -850 Descending Moncton Center
Tue 04:07:04 AM 45.0833 -63.3000 180° South 230 265 4,400 -1,000 Descending Moncton Center
Tue 04:08:04 AM 45.0333 -63.3333 205° Southwest 200 230 3,500 -750 Descending Moncton Center
Tue 04:09:04 AM 44.9833 -63.3833 215° Southwest 200 230 2,900 -800 Descending Moncton Center
Tue 04:10:04 AM 44.9333 -63.4333 215° Southwest 190 219 1,900 -950 Descending Moncton Center
Tue 04:11:04 AM 44.9000 -63.4833 227° Southwest 180 207 1,000 -750 Descending Moncton Center
Tue 04:12:04 AM 44.8500 -63.5000 193° South 170 196 400 -600 Descending Moncton Center

Login

Don't have an account? Register now (free) for customized features, flight alerts, and more!